Datum - Zeit
Döttingen
TemperaturTaupunktFeuchteSolar Wind aus
Richtung
Windböenaus
Richtung
Luftdruck
(QFF)
RegenRegen
Stärke
23.09.2020 - 00.00Uhr16.7 °C14.0 °C84 %0.0 W/m²0.0 km/hSüd-SW0.0 km/hNorden1009.3 hPa0.0 mm0.0 mm/h
23.09.2020 - 00.05Uhr16.7 °C14.0 °C84 %0.0 W/m²0.0 km/hSüd-SW0.0 km/hNorden1009.3 hPa0.0 mm0.0 mm/h
23.09.2020 - 00.10Uhr16.6 °C13.9 °C84 %0.0 W/m²0.0 km/hSüd-SW0.0 km/hNorden1009.3 hPa0.0 mm0.0 mm/h
23.09.2020 - 00.15Uhr16.6 °C13.9 °C84 %0.0 W/m²1.6 km/hSüd-SW4.0 km/hSüd-SW1009.2 hPa0.0 mm0.0 mm/h
23.09.2020 - 00.20Uhr16.7 °C14.0 °C84 %0.0 W/m²0.0 km/hSüd-SW0.0 km/hNorden1009.3 hPa0.0 mm0.0 mm/h
23.09.2020 - 00.25Uhr16.5 °C13.9 °C84 %0.0 W/m²0.0 km/hSüd-SW0.0 km/hNorden1009.4 hPa0.0 mm0.0 mm/h
23.09.2020 - 00.30Uhr16.3 °C13.8 °C85 %0.0 W/m²1.2 km/hSüd-SW4.0 km/hSüd-SW1009.5 hPa0.0 mm0.0 mm/h
23.09.2020 - 00.35Uhr16.3 °C13.8 °C85 %0.0 W/m²1.3 km/hSüd-SW4.0 km/hSüd-SW1009.6 hPa0.0 mm0.0 mm/h
23.09.2020 - 00.40Uhr16.2 °C13.7 °C85 %0.0 W/m²2.9 km/hSüd-SW8.3 km/hNordwesten1009.6 hPa0.0 mm0.0 mm/h
23.09.2020 - 00.45Uhr16.3 °C13.8 °C85 %0.0 W/m²4.6 km/hNord-NW10.1 km/hNord-NW1009.7 hPa0.0 mm0.0 mm/h
23.09.2020 - 00.50Uhr16.3 °C13.8 °C85 %0.0 W/m²5.1 km/hNordwesten8.3 km/hNordwesten1009.7 hPa0.0 mm0.0 mm/h
23.09.2020 - 00.55Uhr16.3 °C13.8 °C85 %0.0 W/m²3.6 km/hNordwesten8.3 km/hNordwesten1009.7 hPa0.2 mm0.0 mm/h
23.09.2020 - 01.00Uhr16.2 °C13.7 °C85 %0.0 W/m²2.5 km/hNordwesten5.8 km/hNordwesten1009.8 hPa0.0 mm0.0 mm/h
23.09.2020 - 01.05Uhr16.1 °C13.6 °C85 %0.0 W/m²1.9 km/hNordwesten5.8 km/hNordwesten1009.7 hPa0.2 mm1.6 mm/h
23.09.2020 - 01.10Uhr16.0 °C13.5 °C85 %0.0 W/m²3.8 km/hWest-NW8.3 km/hWest-NW1009.7 hPa0.2 mm1.6 mm/h
23.09.2020 - 01.15Uhr15.9 °C13.4 °C85 %0.0 W/m²3.9 km/hWest-SW12.2 km/hWest-SW1009.7 hPa1.0 mm22.2 mm/h
23.09.2020 - 01.20Uhr15.8 °C13.3 °C85 %0.0 W/m²2.4 km/hWest-SW8.3 km/hWest-SW1009.7 hPa0.8 mm16.8 mm/h
23.09.2020 - 01.25Uhr15.6 °C13.1 °C85 %0.0 W/m²1.1 km/hWest-SW4.0 km/hWest-SW1009.7 hPa0.6 mm14.2 mm/h
23.09.2020 - 01.30Uhr15.6 °C13.1 °C85 %0.0 W/m²0.3 km/hWest-SW1.8 km/hWest-SW1009.7 hPa0.2 mm4.2 mm/h
23.09.2020 - 01.35Uhr15.4 °C12.9 °C85 %0.0 W/m²1.4 km/hWest-SW4.0 km/hWest-SW1009.7 hPa0.6 mm9.6 mm/h
23.09.2020 - 01.40Uhr15.3 °C12.8 °C85 %0.0 W/m²1.8 km/hWest-SW5.8 km/hWest-SW1009.7 hPa0.6 mm10.6 mm/h
23.09.2020 - 01.45Uhr15.3 °C12.8 °C85 %0.0 W/m²0.8 km/hWest-SW4.0 km/hWest-SW1009.6 hPa0.4 mm8.2 mm/h
23.09.2020 - 01.50Uhr15.3 °C12.8 °C85 %0.0 W/m²1.4 km/hWest-SW4.0 km/hWest-SW1009.7 hPa0.2 mm4.8 mm/h
23.09.2020 - 01.55Uhr15.3 °C12.8 °C85 %0.0 W/m²1.4 km/hWest-SW5.8 km/hWest-SW1009.7 hPa0.2 mm3.0 mm/h
23.09.2020 - 02.00Uhr15.4 °C12.9 °C85 %0.0 W/m²1.0 km/hWest-SW4.0 km/hWest-SW1009.7 hPa0.0 mm2.6 mm/h
23.09.2020 - 02.05Uhr15.4 °C12.9 °C85 %0.0 W/m²1.3 km/hWest-SW4.0 km/hWest-SW1009.7 hPa0.2 mm1.4 mm/h
23.09.2020 - 02.10Uhr15.5 °C13.0 °C85 %0.0 W/m²1.4 km/hWest-SW4.0 km/hWest-SW1009.7 hPa0.2 mm1.8 mm/h
23.09.2020 - 02.15Uhr15.6 °C13.1 °C85 %0.0 W/m²0.0 km/hWest-SW0.0 km/hNorden1009.7 hPa0.2 mm2.2 mm/h
23.09.2020 - 02.20Uhr15.6 °C13.1 °C85 %0.0 W/m²1.0 km/hWest-SW4.0 km/hWest-SW1009.7 hPa0.2 mm3.6 mm/h
23.09.2020 - 02.25Uhr15.5 °C13.0 °C85 %0.0 W/m²0.9 km/hWest-SW4.0 km/hWest-SW1009.7 hPa0.2 mm3.6 mm/h
23.09.2020 - 02.30Uhr15.5 °C13.0 °C85 %0.0 W/m²2.3 km/hWest-SW5.8 km/hWest-SW1009.6 hPa0.0 mm1.6 mm/h
23.09.2020 - 02.35Uhr15.5 °C13.0 °C85 %0.0 W/m²1.9 km/hWest-SW5.8 km/hWest-SW1009.6 hPa0.2 mm1.6 mm/h
23.09.2020 - 02.40Uhr15.4 °C12.9 °C85 %0.0 W/m²0.6 km/hWest-SW4.0 km/hWest-SW1009.6 hPa0.0 mm1.4 mm/h
23.09.2020 - 02.45Uhr15.3 °C12.8 °C85 %0.0 W/m²1.2 km/hWest-SW8.3 km/hSüden1009.6 hPa0.0 mm1.4 mm/h
23.09.2020 - 02.50Uhr15.3 °C12.8 °C85 %0.0 W/m²1.3 km/hSüden4.0 km/hSüden1009.5 hPa0.0 mm1.0 mm/h
23.09.2020 - 02.55Uhr15.3 °C12.8 °C85 %0.0 W/m²0.2 km/hSüden1.8 km/hSüden1009.4 hPa0.0 mm0.0 mm/h
23.09.2020 - 03.00Uhr15.3 °C12.8 °C85 %0.0 W/m²0.8 km/hSüden4.0 km/hSüden1009.3 hPa0.0 mm0.0 mm/h
23.09.2020 - 03.05Uhr15.2 °C12.7 °C85 %0.0 W/m²1.2 km/hSüden8.3 km/hSüden1009.3 hPa0.2 mm0.0 mm/h
23.09.2020 - 03.10Uhr15.2 °C12.7 °C85 %0.0 W/m²1.5 km/hSüden4.0 km/hSüden1009.3 hPa0.0 mm0.0 mm/h
23.09.2020 - 03.15Uhr15.2 °C12.7 °C85 %0.0 W/m²1.3 km/hSüden5.8 km/hSüden1009.3 hPa0.0 mm0.0 mm/h
23.09.2020 - 03.20Uhr15.2 °C12.7 °C85 %0.0 W/m²0.7 km/hSüden1.8 km/hSüden1009.3 hPa0.0 mm0.0 mm/h
23.09.2020 - 03.25Uhr15.2 °C12.7 °C85 %0.0 W/m²4.0 km/hSüden8.3 km/hSüden1009.3 hPa0.0 mm0.0 mm/h
23.09.2020 - 03.30Uhr15.2 °C12.7 °C85 %0.0 W/m²2.3 km/hSüden8.3 km/hSüden1009.3 hPa0.0 mm0.0 mm/h
23.09.2020 - 03.35Uhr15.2 °C12.7 °C85 %0.0 W/m²4.8 km/hSüd-SO16.2 km/hSüd-SO1009.3 hPa0.0 mm0.0 mm/h
23.09.2020 - 03.40Uhr15.2 °C12.7 °C85 %0.0 W/m²1.8 km/hSüd-SO8.3 km/hSüd-SO1009.2 hPa0.0 mm0.0 mm/h
23.09.2020 - 03.45Uhr15.2 °C12.7 °C85 %0.0 W/m²1.3 km/hSüd-SO4.0 km/hSüd-SO1009.2 hPa0.0 mm0.0 mm/h
23.09.2020 - 03.50Uhr15.2 °C12.7 °C85 %0.0 W/m²5.3 km/hSüd-SO12.2 km/hSüd-SO1009.2 hPa0.0 mm0.0 mm/h
23.09.2020 - 03.55Uhr15.2 °C12.7 °C85 %0.0 W/m²3.2 km/hSüd-SO8.3 km/hSüd-SO1009.2 hPa0.0 mm0.0 mm/h
23.09.2020 - 04.00Uhr15.2 °C12.7 °C85 %0.0 W/m²3.0 km/hSüdosten8.3 km/hSüdosten1009.2 hPa0.0 mm0.0 mm/h
23.09.2020 - 04.05Uhr15.2 °C12.7 °C85 %0.0 W/m²2.4 km/hSüdosten8.3 km/hSüdosten1009.2 hPa0.0 mm0.0 mm/h
23.09.2020 - 04.10Uhr15.2 °C12.7 °C85 %0.0 W/m²3.1 km/hSüdosten8.3 km/hSüdosten1009.2 hPa0.0 mm0.0 mm/h
23.09.2020 - 04.15Uhr15.2 °C12.7 °C85 %0.0 W/m²1.1 km/hSüd-SO4.0 km/hSüd-SO1009.2 hPa0.0 mm0.0 mm/h
23.09.2020 - 04.20Uhr15.2 °C12.7 °C85 %0.0 W/m²1.1 km/hSüd-SO4.0 km/hSüd-SO1009.3 hPa0.0 mm0.0 mm/h
23.09.2020 - 04.25Uhr15.2 °C12.7 °C85 %0.0 W/m²2.0 km/hSüd-SO8.3 km/hSüd-SO1009.3 hPa0.0 mm0.0 mm/h
23.09.2020 - 04.30Uhr15.3 °C12.8 °C85 %0.0 W/m²2.1 km/hSüd-SO8.3 km/hSüd-SO1009.3 hPa0.0 mm0.0 mm/h
23.09.2020 - 04.35Uhr15.3 °C12.8 °C85 %0.0 W/m²2.6 km/hSüd-SO8.3 km/hSüd-SO1009.3 hPa0.0 mm0.0 mm/h
23.09.2020 - 04.40Uhr15.4 °C12.9 °C85 %0.0 W/m²2.4 km/hSüdosten8.3 km/hSüdosten1009.3 hPa0.0 mm0.0 mm/h
23.09.2020 - 04.45Uhr15.4 °C12.9 °C85 %0.0 W/m²2.0 km/hSüdosten8.3 km/hSüdosten1009.3 hPa0.0 mm0.0 mm/h
23.09.2020 - 04.50Uhr15.4 °C12.9 °C85 %0.0 W/m²0.3 km/hSüdosten1.8 km/hSüdosten1009.3 hPa0.0 mm0.0 mm/h
23.09.2020 - 04.55Uhr15.3 °C12.8 °C85 %0.0 W/m²0.0 km/hSüdosten0.0 km/hNorden1009.4 hPa0.0 mm0.0 mm/h
23.09.2020 - 05.00Uhr15.3 °C12.8 °C85 %0.0 W/m²0.4 km/hSüdosten1.8 km/hSüdosten1009.4 hPa0.0 mm0.0 mm/h
23.09.2020 - 05.05Uhr15.4 °C12.9 °C85 %0.0 W/m²1.0 km/hSüdosten4.0 km/hSüdosten1009.4 hPa0.0 mm0.0 mm/h
23.09.2020 - 05.10Uhr15.4 °C12.9 °C85 %0.0 W/m²0.5 km/hSüdosten1.8 km/hSüdosten1009.4 hPa0.0 mm0.0 mm/h
23.09.2020 - 05.15Uhr15.4 °C12.9 °C85 %0.0 W/m²2.4 km/hSüdosten8.3 km/hSüdosten1009.3 hPa0.0 mm0.0 mm/h
23.09.2020 - 05.20Uhr15.4 °C12.9 °C85 %0.0 W/m²1.4 km/hSüdosten4.0 km/hSüdosten1009.3 hPa0.0 mm0.0 mm/h
23.09.2020 - 05.25Uhr15.4 °C12.9 °C85 %0.0 W/m²0.8 km/hSüdosten4.0 km/hSüdosten1009.3 hPa0.0 mm0.0 mm/h
23.09.2020 - 05.30Uhr15.4 °C12.9 °C85 %0.0 W/m²1.6 km/hSüdosten4.0 km/hSüdosten1009.3 hPa0.0 mm0.0 mm/h
23.09.2020 - 05.35Uhr15.4 °C12.9 °C85 %0.0 W/m²0.3 km/hSüdosten1.8 km/hSüdosten1009.2 hPa0.2 mm0.0 mm/h
23.09.2020 - 05.40Uhr15.4 °C12.9 °C85 %0.0 W/m²1.5 km/hSüdosten4.0 km/hSüdosten1009.2 hPa0.0 mm0.0 mm/h
23.09.2020 - 05.45Uhr15.4 °C12.9 °C85 %0.0 W/m²1.5 km/hSüdosten4.0 km/hSüdosten1009.1 hPa0.0 mm0.0 mm/h
23.09.2020 - 05.50Uhr15.4 °C12.9 °C85 %0.0 W/m²2.5 km/hSüdosten8.3 km/hSüdosten1009.2 hPa0.2 mm1.0 mm/h
23.09.2020 - 05.55Uhr15.4 °C12.9 °C85 %0.0 W/m²2.1 km/hSüdosten8.3 km/hSüdosten1009.1 hPa0.0 mm1.0 mm/h
23.09.2020 - 06.00Uhr15.4 °C12.9 °C85 %0.0 W/m²0.0 km/hSüdosten0.0 km/hNorden1009.1 hPa0.0 mm1.0 mm/h
23.09.2020 - 06.05Uhr15.4 °C12.9 °C85 %0.0 W/m²0.3 km/hSüdosten1.8 km/hSüdosten1009.1 hPa0.0 mm0.8 mm/h
23.09.2020 - 06.10Uhr15.4 °C12.9 °C85 %0.0 W/m²1.7 km/hSüdosten8.3 km/hSüd-SO1009.1 hPa0.0 mm0.0 mm/h
23.09.2020 - 06.15Uhr15.4 °C12.9 °C85 %0.0 W/m²0.3 km/hSüdosten1.8 km/hSüdosten1009.1 hPa0.0 mm0.0 mm/h
23.09.2020 - 06.20Uhr15.3 °C12.8 °C85 %0.0 W/m²0.0 km/hSüdosten0.0 km/hNorden1009.1 hPa0.0 mm0.0 mm/h
23.09.2020 - 06.25Uhr15.4 °C12.9 °C85 %0.0 W/m²1.0 km/hSüdosten8.3 km/hSüdosten1009.0 hPa0.0 mm0.0 mm/h
23.09.2020 - 06.30Uhr15.3 °C12.8 °C85 %0.0 W/m²0.5 km/hSüdosten4.0 km/hSüdosten1009.0 hPa0.0 mm0.0 mm/h
23.09.2020 - 06.35Uhr15.3 °C12.8 °C85 %0.0 W/m²0.9 km/hSüdosten4.0 km/hSüdosten1009.0 hPa0.0 mm0.0 mm/h
23.09.2020 - 06.40Uhr15.4 °C12.9 °C85 %0.0 W/m²0.0 km/hSüdosten0.0 km/hNorden1008.9 hPa0.0 mm0.0 mm/h
23.09.2020 - 06.45Uhr15.4 °C12.9 °C85 %0.0 W/m²0.1 km/hSüdosten1.8 km/hSüdosten1008.9 hPa0.0 mm0.0 mm/h
23.09.2020 - 06.50Uhr15.4 °C12.9 °C85 %0.0 W/m²2.0 km/hSüdosten4.0 km/hSüdosten1009.0 hPa0.0 mm0.0 mm/h
23.09.2020 - 06.55Uhr15.5 °C13.0 °C85 %0.0 W/m²0.0 km/hSüdosten0.0 km/hNorden1009.0 hPa0.0 mm0.0 mm/h
23.09.2020 - 07.00Uhr15.4 °C12.9 °C85 %0.0 W/m²0.0 km/hSüdosten0.0 km/hNorden1009.0 hPa0.0 mm0.0 mm/h
23.09.2020 - 07.05Uhr15.4 °C12.9 °C85 %0.0 W/m²0.4 km/hSüdosten1.8 km/hSüdosten1009.0 hPa0.0 mm0.0 mm/h
23.09.2020 - 07.10Uhr15.4 °C12.9 °C85 %0.0 W/m²0.0 km/hSüdosten0.0 km/hNorden1009.0 hPa0.0 mm0.0 mm/h
23.09.2020 - 07.15Uhr15.4 °C12.9 °C85 %0.0 W/m²0.0 km/hSüdosten0.0 km/hNorden1009.0 hPa0.0 mm0.0 mm/h
23.09.2020 - 07.20Uhr15.4 °C12.9 °C85 %0.0 W/m²0.0 km/hSüdosten0.0 km/hNorden1009.0 hPa0.0 mm0.0 mm/h
23.09.2020 - 07.25Uhr15.3 °C12.8 °C85 %0.0 W/m²0.0 km/hSüdosten0.0 km/hNorden1009.0 hPa0.0 mm0.0 mm/h
23.09.2020 - 07.30Uhr15.4 °C12.9 °C85 %5.0 W/m²0.0 km/hSüdosten0.0 km/hNorden1009.1 hPa0.0 mm0.0 mm/h
23.09.2020 - 07.35Uhr15.4 °C12.9 °C85 %11.0 W/m²0.0 km/hSüdosten0.0 km/hNorden1009.1 hPa0.0 mm0.0 mm/h
23.09.2020 - 07.40Uhr15.4 °C12.9 °C85 %21.0 W/m²0.0 km/hSüdosten0.0 km/hNorden1009.1 hPa0.0 mm0.0 mm/h
23.09.2020 - 07.45Uhr15.4 °C12.9 °C85 %25.0 W/m²0.0 km/hSüdosten0.0 km/hNorden1009.1 hPa0.0 mm0.0 mm/h
23.09.2020 - 07.50Uhr15.4 °C12.9 °C85 %19.0 W/m²0.0 km/hSüdosten0.0 km/hNorden1009.1 hPa0.0 mm0.0 mm/h
23.09.2020 - 07.55Uhr15.4 °C12.9 °C85 %28.0 W/m²0.0 km/hSüdosten0.0 km/hNorden1009.2 hPa0.0 mm0.0 mm/h
23.09.2020 - 08.00Uhr15.4 °C12.9 °C85 %33.0 W/m²0.0 km/hSüdosten0.0 km/hNorden1009.2 hPa0.0 mm0.0 mm/h
23.09.2020 - 08.05Uhr15.6 °C13.1 °C85 %42.0 W/m²0.0 km/hSüdosten0.0 km/hNorden1009.2 hPa0.0 mm0.0 mm/h
23.09.2020 - 08.10Uhr15.7 °C13.2 °C85 %49.0 W/m²0.0 km/hSüdosten0.0 km/hNorden1009.2 hPa0.0 mm0.0 mm/h
23.09.2020 - 08.15Uhr15.8 °C13.3 °C85 %60.0 W/m²0.0 km/hSüdosten0.0 km/hNorden1009.2 hPa0.0 mm0.0 mm/h
23.09.2020 - 08.20Uhr15.7 °C13.2 °C85 %62.0 W/m²0.0 km/hSüdosten0.0 km/hNorden1009.2 hPa0.0 mm0.0 mm/h
23.09.2020 - 08.25Uhr15.8 °C13.3 °C85 %58.0 W/m²0.0 km/hSüdosten0.0 km/hNorden1009.2 hPa0.0 mm0.0 mm/h
23.09.2020 - 08.30Uhr15.8 °C13.3 °C85 %49.0 W/m²0.0 km/hSüdosten0.0 km/hNorden1009.2 hPa0.0 mm0.0 mm/h
23.09.2020 - 08.35Uhr15.8 °C13.3 °C85 %49.0 W/m²0.0 km/hSüdosten0.0 km/hNorden1009.3 hPa0.0 mm0.0 mm/h
23.09.2020 - 08.40Uhr15.8 °C13.3 °C85 %58.0 W/m²0.0 km/hSüdosten0.0 km/hNorden1009.2 hPa0.0 mm0.0 mm/h
23.09.2020 - 08.45Uhr15.9 °C13.4 °C85 %65.0 W/m²0.0 km/hSüdosten0.0 km/hNorden1009.2 hPa0.0 mm0.0 mm/h
23.09.2020 - 08.50Uhr16.0 °C13.5 °C85 %95.0 W/m²0.0 km/hSüdosten0.0 km/hNorden1009.2 hPa0.2 mm0.0 mm/h
23.09.2020 - 08.55Uhr16.0 °C13.5 °C85 %118.0 W/m²0.0 km/hSüdosten0.0 km/hNorden1009.2 hPa0.0 mm0.0 mm/h
23.09.2020 - 09.00Uhr16.3 °C13.8 °C85 %107.0 W/m²1.0 km/hSüdosten4.0 km/hSüdosten1009.3 hPa0.0 mm0.0 mm/h
23.09.2020 - 09.05Uhr16.1 °C13.6 °C85 %104.0 W/m²1.2 km/hSüdosten8.3 km/hSüdosten1009.2 hPa0.0 mm0.0 mm/h
23.09.2020 - 09.10Uhr16.2 °C13.7 °C85 %120.0 W/m²0.2 km/hSüdosten1.8 km/hSüdosten1009.2 hPa0.0 mm0.0 mm/h
23.09.2020 - 09.15Uhr16.3 °C13.8 °C85 %163.0 W/m²1.4 km/hSüdosten8.3 km/hSüdosten1009.2 hPa0.0 mm0.0 mm/h
23.09.2020 - 09.20Uhr16.4 °C13.8 °C85 %123.0 W/m²0.1 km/hSüdosten1.8 km/hSüdosten1009.2 hPa0.0 mm0.0 mm/h
23.09.2020 - 09.25Uhr16.4 °C13.8 °C85 %114.0 W/m²1.0 km/hSüdosten8.3 km/hSüdosten1009.3 hPa0.0 mm0.0 mm/h
23.09.2020 - 09.30Uhr16.5 °C14.0 °C85 %97.0 W/m²1.3 km/hSüdosten8.3 km/hSüd-SO1009.4 hPa0.0 mm0.0 mm/h
23.09.2020 - 09.35Uhr16.4 °C13.9 °C85 %93.0 W/m²1.0 km/hSüd-SO4.0 km/hSüd-SO1009.4 hPa0.0 mm0.0 mm/h
23.09.2020 - 09.40Uhr16.3 °C13.8 °C85 %107.0 W/m²3.9 km/hSüd-SO8.3 km/hSüd-SO1009.4 hPa0.0 mm0.0 mm/h
23.09.2020 - 09.45Uhr16.4 °C13.8 °C85 %113.0 W/m²2.6 km/hSüden5.8 km/hSüden1009.4 hPa0.0 mm0.0 mm/h
23.09.2020 - 09.50Uhr16.4 °C13.9 °C85 %107.0 W/m²1.3 km/hSüd-SW4.0 km/hSüd-SW1009.4 hPa0.0 mm0.0 mm/h
23.09.2020 - 09.55Uhr16.4 °C13.9 °C85 %125.0 W/m²0.5 km/hSüd-SW1.8 km/hSüd-SW1009.5 hPa0.0 mm0.0 mm/h
23.09.2020 - 10.00Uhr16.8 °C14.3 °C85 %142.0 W/m²0.9 km/hSüd-SW4.0 km/hSüd-SW1009.5 hPa0.0 mm0.0 mm/h
23.09.2020 - 10.05Uhr16.7 °C14.2 °C85 %151.0 W/m²1.0 km/hSüd-SW4.0 km/hSüd-SW1009.5 hPa0.0 mm0.0 mm/h
23.09.2020 - 10.10Uhr16.8 °C14.3 °C85 %149.0 W/m²1.0 km/hSüd-SW4.0 km/hSüd-SW1009.5 hPa0.0 mm0.0 mm/h
23.09.2020 - 10.15Uhr17.0 °C14.5 °C85 %137.0 W/m²0.1 km/hSüd-SW1.8 km/hSüd-SW1009.5 hPa0.0 mm0.0 mm/h
23.09.2020 - 10.20Uhr17.0 °C14.5 °C85 %172.0 W/m²3.0 km/hSüd-SW8.3 km/hWest-SW1009.5 hPa0.0 mm0.0 mm/h
23.09.2020 - 10.25Uhr17.1 °C14.6 °C85 %185.0 W/m²1.3 km/hWest-SW4.0 km/hWest-SW1009.5 hPa0.0 mm0.0 mm/h
23.09.2020 - 10.30Uhr17.3 °C14.8 °C85 %200.0 W/m²1.6 km/hWest-SW4.0 km/hWest-SW1009.6 hPa0.0 mm0.0 mm/h
23.09.2020 - 10.35Uhr17.3 °C14.8 °C85 %207.0 W/m²2.5 km/hWest-SW8.3 km/hWest-SW1009.6 hPa0.0 mm0.0 mm/h
23.09.2020 - 10.40Uhr17.3 °C14.8 °C85 %246.0 W/m²1.4 km/hWest-SW8.3 km/hWest-SW1009.7 hPa0.0 mm0.0 mm/h
23.09.2020 - 10.45Uhr17.5 °C15.0 °C85 %404.0 W/m²0.9 km/hWest-SW5.8 km/hWest-SW1009.6 hPa0.0 mm0.0 mm/h
23.09.2020 - 10.50Uhr18.4 °C15.8 °C85 %656.0 W/m²0.7 km/hWest-SW5.8 km/hWest-SW1009.6 hPa0.0 mm0.0 mm/h
23.09.2020 - 10.55Uhr18.4 °C15.8 °C85 %652.0 W/m²3.7 km/hWest-SW12.2 km/hWest-SW1009.6 hPa0.0 mm0.0 mm/h
23.09.2020 - 11.00Uhr17.9 °C15.3 °C85 %496.0 W/m²4.8 km/hWest-SW12.2 km/hWesten1009.6 hPa0.0 mm0.0 mm/h
23.09.2020 - 11.05Uhr17.6 °C15.1 °C85 %411.0 W/m²9.6 km/hWest-NW14.0 km/hWesten1009.6 hPa0.0 mm0.0 mm/h
23.09.2020 - 11.10Uhr17.3 °C14.8 °C85 %489.0 W/m²7.8 km/hWest-NW12.2 km/hWest-NW1009.6 hPa0.0 mm0.0 mm/h
23.09.2020 - 11.15Uhr17.3 °C14.8 °C85 %313.0 W/m²6.8 km/hWest-NW12.2 km/hWest-NW1009.6 hPa0.0 mm0.0 mm/h
23.09.2020 - 11.20Uhr17.2 °C14.7 °C85 %294.0 W/m²9.1 km/hWest-NW20.2 km/hWesten1009.6 hPa0.0 mm0.0 mm/h
23.09.2020 - 11.25Uhr17.1 °C14.6 °C85 %464.0 W/m²9.8 km/hWesten16.2 km/hWesten1009.5 hPa0.0 mm0.0 mm/h
23.09.2020 - 11.30Uhr17.5 °C14.9 °C85 %635.0 W/m²10.6 km/hWesten18.0 km/hWesten1009.4 hPa0.0 mm0.0 mm/h
23.09.2020 - 11.35Uhr17.9 °C15.2 °C85 %635.0 W/m²6.6 km/hWest-NW12.2 km/hWest-NW1009.5 hPa0.0 mm0.0 mm/h
23.09.2020 - 11.40Uhr17.7 °C15.1 °C85 %343.0 W/m²9.4 km/hWest-NW14.0 km/hWesten1009.4 hPa0.0 mm0.0 mm/h
23.09.2020 - 11.45Uhr17.6 °C15.0 °C84 %501.0 W/m²12.9 km/hWest-NW20.2 km/hWesten1009.4 hPa0.0 mm0.0 mm/h
23.09.2020 - 11.50Uhr17.8 °C15.1 °C84 %274.0 W/m²8.3 km/hWest-NW18.0 km/hWest-NW1009.4 hPa0.0 mm0.0 mm/h
23.09.2020 - 11.55Uhr17.7 °C15.0 °C84 %211.0 W/m²7.5 km/hWest-NW16.2 km/hWest-NW1009.3 hPa0.0 mm0.0 mm/h
23.09.2020 - 12.00Uhr17.6 °C14.8 °C84 %179.0 W/m²7.8 km/hWest-NW12.2 km/hWest-NW1009.3 hPa0.0 mm0.0 mm/h
23.09.2020 - 12.05Uhr17.5 °C14.9 °C85 %174.0 W/m²11.0 km/hWesten16.2 km/hWesten1009.3 hPa0.0 mm0.0 mm/h
23.09.2020 - 12.10Uhr17.4 °C14.7 °C84 %183.0 W/m²11.2 km/hWesten18.0 km/hWesten1009.3 hPa0.0 mm0.0 mm/h
23.09.2020 - 12.15Uhr17.5 °C14.8 °C84 %255.0 W/m²10.0 km/hWest-NW16.2 km/hWest-NW1009.3 hPa0.0 mm0.0 mm/h
23.09.2020 - 12.20Uhr17.9 °C15.2 °C84 %714.0 W/m²11.6 km/hWest-NW16.2 km/hWesten1009.2 hPa0.0 mm0.0 mm/h
23.09.2020 - 12.25Uhr18.6 °C15.7 °C83 %714.0 W/m²10.1 km/hWest-NW18.0 km/hWest-NW1009.2 hPa0.0 mm0.0 mm/h
23.09.2020 - 12.30Uhr19.2 °C16.0 °C81 %617.0 W/m²14.8 km/hWest-NW26.3 km/hWesten1009.1 hPa0.0 mm0.0 mm/h
23.09.2020 - 12.35Uhr19.3 °C15.7 °C80 %703.0 W/m²13.2 km/hWest-NW22.0 km/hSüdwesten1009.0 hPa0.0 mm0.0 mm/h
23.09.2020 - 12.40Uhr19.3 °C15.6 °C79 %703.0 W/m²10.9 km/hWest-NW24.5 km/hSüdwesten1009.0 hPa0.0 mm0.0 mm/h
23.09.2020 - 12.45Uhr19.0 °C15.4 °C80 %338.0 W/m²11.5 km/hWesten18.0 km/hWest-SW1009.0 hPa0.0 mm0.0 mm/h
23.09.2020 - 12.50Uhr18.8 °C15.4 °C81 %227.0 W/m²9.3 km/hWesten16.2 km/hSüdwesten1009.0 hPa0.0 mm0.0 mm/h
23.09.2020 - 12.55Uhr18.7 °C15.4 °C81 %241.0 W/m²6.8 km/hWesten14.0 km/hWest-SW1009.0 hPa0.0 mm0.0 mm/h
23.09.2020 - 13.00Uhr18.8 °C15.6 °C82 %262.0 W/m²8.8 km/hWest-NW14.0 km/hWest-SW1009.0 hPa0.0 mm0.0 mm/h
23.09.2020 - 13.05Uhr18.9 °C15.7 °C82 %239.0 W/m²6.9 km/hWest-NW12.2 km/hWest-NW1009.0 hPa0.0 mm0.0 mm/h
23.09.2020 - 13.10Uhr18.8 °C15.6 °C81 %179.0 W/m²6.5 km/hWesten12.2 km/hWesten1008.9 hPa0.0 mm0.0 mm/h
23.09.2020 - 13.15Uhr18.7 °C15.5 °C82 %165.0 W/m²8.1 km/hWesten18.0 km/hSüdwesten1008.9 hPa0.0 mm0.0 mm/h
23.09.2020 - 13.20Uhr18.7 °C15.4 °C81 %162.0 W/m²5.3 km/hWesten12.2 km/hWesten1008.9 hPa0.0 mm0.0 mm/h
23.09.2020 - 13.25Uhr18.8 °C15.6 °C82 %200.0 W/m²3.6 km/hWesten10.1 km/hWesten1008.9 hPa0.0 mm0.0 mm/h
23.09.2020 - 13.30Uhr18.9 °C15.7 °C82 %244.0 W/m²5.9 km/hWesten12.2 km/hSüdwesten1008.9 hPa0.0 mm0.0 mm/h
23.09.2020 - 13.35Uhr19.0 °C15.6 °C80 %241.0 W/m²5.8 km/hWest-SW12.2 km/hWest-SW1008.9 hPa0.0 mm0.0 mm/h
23.09.2020 - 13.40Uhr19.2 °C15.7 °C80 %283.0 W/m²4.0 km/hWesten10.1 km/hSüd-SW1008.8 hPa0.0 mm0.0 mm/h
23.09.2020 - 13.45Uhr19.5 °C16.1 °C80 %283.0 W/m²1.1 km/hWesten4.0 km/hWesten1008.8 hPa0.0 mm0.0 mm/h
23.09.2020 - 13.50Uhr19.7 °C16.1 °C80 %610.0 W/m²3.6 km/hWesten8.3 km/hSüdwesten1008.8 hPa0.0 mm0.0 mm/h
23.09.2020 - 13.55Uhr20.2 °C16.3 °C79 %610.0 W/m²6.5 km/hNordwesten14.0 km/hNordwesten1008.7 hPa0.0 mm0.0 mm/h
23.09.2020 - 14.00Uhr20.1 °C16.1 °C78 %707.0 W/m²4.6 km/hWest-NW10.1 km/hWest-NW1008.6 hPa0.0 mm0.0 mm/h
23.09.2020 - 14.05Uhr20.5 °C16.3 °C77 %738.0 W/m²8.9 km/hWest-NW16.2 km/hWest-SW1008.6 hPa0.0 mm0.0 mm/h
23.09.2020 - 14.10Uhr20.7 °C15.9 °C74 %396.0 W/m²6.6 km/hWest-SW16.2 km/hWesten1008.6 hPa0.0 mm0.0 mm/h
23.09.2020 - 14.15Uhr20.7 °C16.0 °C74 %424.0 W/m²5.4 km/hWesten8.3 km/hWest-SW1008.6 hPa0.0 mm0.0 mm/h
23.09.2020 - 14.20Uhr20.8 °C16.1 °C75 %401.0 W/m²3.2 km/hWest-SW8.3 km/hWest-SW1008.6 hPa0.0 mm0.0 mm/h
23.09.2020 - 14.25Uhr20.4 °C15.9 °C76 %232.0 W/m²6.6 km/hWest-SW16.2 km/hWest-SW1008.5 hPa0.0 mm0.0 mm/h
23.09.2020 - 14.30Uhr19.9 °C15.2 °C74 %195.0 W/m²7.9 km/hWest-SW16.2 km/hSüdwesten1008.5 hPa0.0 mm0.0 mm/h
23.09.2020 - 14.35Uhr19.8 °C15.4 °C76 %248.0 W/m²9.0 km/hWesten16.2 km/hWesten1008.4 hPa0.0 mm0.0 mm/h
23.09.2020 - 14.40Uhr19.9 °C15.2 °C75 %276.0 W/m²8.4 km/hWesten14.0 km/hWesten1008.3 hPa0.0 mm0.0 mm/h
23.09.2020 - 14.45Uhr20.0 °C15.5 °C75 %338.0 W/m²7.6 km/hWesten14.0 km/hSüdwesten1008.3 hPa0.0 mm0.0 mm/h
23.09.2020 - 14.50Uhr20.4 °C15.7 °C74 %404.0 W/m²8.0 km/hWest-NW16.2 km/hWesten1008.2 hPa0.0 mm0.0 mm/h
23.09.2020 - 14.55Uhr20.8 °C16.0 °C74 %381.0 W/m²7.1 km/hWest-SW14.0 km/hWest-SW1008.2 hPa0.0 mm0.0 mm/h
23.09.2020 - 15.00Uhr20.8 °C15.9 °C73 %424.0 W/m²6.2 km/hWesten12.2 km/hWesten1008.2 hPa0.0 mm0.0 mm/h